createdAt,value
2023-04-13T00:00:50.586Z,23.84
2023-04-13T00:03:18.877Z,23.84
2023-04-13T00:05:48.599Z,23.84
2023-04-13T00:08:18.662Z,23.84
2023-04-13T00:10:46.561Z,23.84
2023-04-13T00:13:14.889Z,23.84
2023-04-13T00:15:43.316Z,23.83
2023-04-13T00:18:11.598Z,23.83
2023-04-13T00:20:41.120Z,23.83
2023-04-13T00:23:09.330Z,23.72
2023-04-13T00:25:38.657Z,23.83
2023-04-13T00:28:07.007Z,23.65
2023-04-13T00:30:35.031Z,23.47
2023-04-13T00:33:03.894Z,23.82
2023-04-13T00:35:32.136Z,23.81
2023-04-13T00:38:00.621Z,23.82
2023-04-13T00:40:30.148Z,23.61
2023-04-13T00:43:02.452Z,23.82
2023-04-13T00:45:30.496Z,23.81
2023-04-13T00:48:00.361Z,23.81
2023-04-13T00:50:28.533Z,23.81
2023-04-13T00:52:58.002Z,23.59
2023-04-13T00:55:27.694Z,23.80
2023-04-13T00:57:55.703Z,23.80
2023-04-13T01:00:27.081Z,23.81
2023-04-13T01:02:55.610Z,23.68
2023-04-13T01:05:25.529Z,23.79
2023-04-13T01:08:01.866Z,23.78
2023-04-13T01:10:32.334Z,23.77
2023-04-13T01:13:05.729Z,23.78
2023-04-13T01:15:37.133Z,23.80
2023-04-13T01:18:10.041Z,23.77
2023-04-13T01:20:38.934Z,23.80
2023-04-13T01:23:09.411Z,23.78
2023-04-13T01:25:41.986Z,23.79
2023-04-13T01:28:13.542Z,23.79
2023-04-13T01:30:42.086Z,23.78
2023-04-13T01:33:10.578Z,23.79
2023-04-13T01:35:39.176Z,23.80
2023-04-13T01:38:08.799Z,23.80
2023-04-13T01:40:40.714Z,23.81
2023-04-13T01:43:08.747Z,23.81
2023-04-13T01:45:46.037Z,23.81
2023-04-13T01:48:16.155Z,23.81
2023-04-13T01:50:46.465Z,23.80
2023-04-13T01:53:17.398Z,23.79
2023-04-13T01:55:45.489Z,23.79
2023-04-13T01:58:14.243Z,23.81
2023-04-13T02:00:44.065Z,23.79
2023-04-13T02:03:12.411Z,23.78
2023-04-13T02:05:41.573Z,23.78
2023-04-13T02:08:09.692Z,23.79
2023-04-13T02:10:39.409Z,23.78
2023-04-13T02:13:07.287Z,23.77
2023-04-13T02:15:37.264Z,23.77
2023-04-13T02:18:07.177Z,23.77
2023-04-13T02:20:45.257Z,23.77
2023-04-13T02:23:14.892Z,23.76
2023-04-13T02:25:45.997Z,23.76
2023-04-13T02:28:18.003Z,23.77
2023-04-13T02:30:47.045Z,23.75
2023-04-13T02:33:16.940Z,23.75
2023-04-13T02:35:45.559Z,23.76
2023-04-13T02:38:13.528Z,23.75
2023-04-13T02:40:43.684Z,23.75
2023-04-13T02:43:12.241Z,23.74
2023-04-13T02:45:40.338Z,23.74
2023-04-13T02:48:09.531Z,23.74
2023-04-13T02:50:39.151Z,23.74
2023-04-13T02:53:07.868Z,23.73
2023-04-13T02:55:36.637Z,23.74
2023-04-13T02:58:06.245Z,23.71
2023-04-13T03:00:34.641Z,23.75
2023-04-13T03:03:03.571Z,23.71
2023-04-13T03:05:32.256Z,23.74
2023-04-13T03:08:02.438Z,23.74
2023-04-13T03:10:31.865Z,23.74
2023-04-13T03:12:59.953Z,23.76
2023-04-13T03:15:27.891Z,23.77
2023-04-13T03:17:55.831Z,23.77
2023-04-13T03:20:24.252Z,23.79
2023-04-13T03:22:53.501Z,23.78
2023-04-13T03:25:22.817Z,23.81
2023-04-13T03:27:50.715Z,23.81
2023-04-13T03:30:19.367Z,23.82
2023-04-13T03:32:47.298Z,23.82
2023-04-13T03:35:15.476Z,23.82
2023-04-13T03:37:44.863Z,23.81
2023-04-13T03:40:13.760Z,23.80
2023-04-13T03:42:43.072Z,23.81
2023-04-13T03:45:12.161Z,23.82
2023-04-13T03:47:40.486Z,23.81
2023-04-13T03:50:09.901Z,23.78
2023-04-13T03:52:37.769Z,23.82
2023-04-13T03:55:06.847Z,23.82
2023-04-13T03:57:35.085Z,23.81
2023-04-13T04:00:09.165Z,23.81
2023-04-13T04:02:37.880Z,23.81
2023-04-13T04:05:06.556Z,23.80
2023-04-13T04:07:34.470Z,23.80
2023-04-13T04:10:02.641Z,23.81
2023-04-13T04:12:30.523Z,23.81
2023-04-13T04:14:58.489Z,23.81
2023-04-13T04:17:27.833Z,23.81
2023-04-13T04:19:56.771Z,23.81
2023-04-13T04:22:29.947Z,23.82
2023-04-13T04:24:59.974Z,23.81
2023-04-13T04:27:27.934Z,23.80
2023-04-13T04:29:59.350Z,23.82
2023-04-13T04:32:28.821Z,23.80
2023-04-13T04:34:56.780Z,23.81
2023-04-13T04:37:26.116Z,23.80
2023-04-13T04:39:54.395Z,23.81
2023-04-13T04:42:22.306Z,23.81
2023-04-13T04:44:50.799Z,23.81
2023-04-13T04:47:19.753Z,23.81
2023-04-13T04:49:49.425Z,23.82
2023-04-13T04:52:17.354Z,23.76
2023-04-13T04:54:45.330Z,23.81
2023-04-13T04:57:14.469Z,23.82
2023-04-13T04:59:42.409Z,23.81
2023-04-13T05:02:10.761Z,23.83
2023-04-13T05:04:39.455Z,23.82
2023-04-13T05:07:09.410Z,23.82
2023-04-13T05:09:38.695Z,23.82
2023-04-13T05:12:07.533Z,23.82
2023-04-13T05:14:35.437Z,23.82
2023-04-13T05:17:03.339Z,23.78
2023-04-13T05:19:31.513Z,23.82
2023-04-13T05:22:01.104Z,23.80
2023-04-13T05:24:31.096Z,23.81
2023-04-13T05:27:00.693Z,23.82
2023-04-13T05:29:28.602Z,23.81
2023-04-13T05:31:59.779Z,23.82
2023-04-13T05:34:27.858Z,23.81
2023-04-13T05:36:55.811Z,23.81
2023-04-13T05:39:24.447Z,23.81
2023-04-13T05:41:54.039Z,23.82
2023-04-13T05:44:22.030Z,23.81
2023-04-13T05:46:50.471Z,23.81
2023-04-13T05:49:18.451Z,23.79
2023-04-13T05:51:47.777Z,23.81
2023-04-13T05:54:17.443Z,23.82
2023-04-13T05:56:45.457Z,23.81
2023-04-13T05:59:15.503Z,23.82
2023-04-13T06:01:43.762Z,23.80
2023-04-13T06:04:12.929Z,23.79
2023-04-13T06:06:40.966Z,23.80
2023-04-13T06:09:09.212Z,23.80
2023-04-13T06:11:37.143Z,23.82
2023-04-13T06:14:05.054Z,23.82
2023-04-13T06:16:34.357Z,23.81
2023-04-13T06:19:02.544Z,23.81
2023-04-13T06:21:32.021Z,23.82
2023-04-13T06:23:59.964Z,23.81
2023-04-13T06:26:28.960Z,23.81
2023-04-13T06:28:57.125Z,23.82
2023-04-13T06:31:27.786Z,23.83
2023-04-13T06:33:57.235Z,23.84
2023-04-13T06:36:25.616Z,23.83
2023-04-13T06:38:54.349Z,23.83
2023-04-13T06:41:22.621Z,23.85
2023-04-13T06:43:50.539Z,23.73
2023-04-13T06:46:19.933Z,23.84
2023-04-13T06:48:48.083Z,23.84
2023-04-13T06:51:17.614Z,23.84
2023-04-13T06:53:45.518Z,23.83
2023-04-13T06:56:13.465Z,23.84
2023-04-13T06:58:41.375Z,23.85
2023-04-13T07:01:09.584Z,23.84
2023-04-13T07:03:37.766Z,23.84
2023-04-13T07:06:06.400Z,23.83
2023-04-13T07:08:36.660Z,23.85
2023-04-13T07:11:04.612Z,23.84
2023-04-13T07:13:32.542Z,23.83
2023-04-13T07:16:00.537Z,23.84
2023-04-13T07:18:28.434Z,23.83
2023-04-13T07:20:56.716Z,23.84
2023-04-13T07:23:24.603Z,23.82
2023-04-13T07:25:53.920Z,23.83
2023-04-13T07:28:21.904Z,23.83
2023-04-13T07:30:50.136Z,23.82
2023-04-13T07:33:18.058Z,23.82
2023-04-13T07:35:46.332Z,23.83
2023-04-13T07:38:14.871Z,23.80
2023-04-13T07:40:43.123Z,23.80
2023-04-13T07:43:12.465Z,23.82
2023-04-13T07:45:40.360Z,23.82
2023-04-13T07:48:08.785Z,23.82
2023-04-13T07:50:41.604Z,23.82
2023-04-13T07:53:09.575Z,23.70
2023-04-13T07:55:37.756Z,23.83
2023-04-13T07:58:05.843Z,23.82
2023-04-13T08:00:35.681Z,23.82
2023-04-13T08:03:03.713Z,23.82
2023-04-13T08:05:31.910Z,23.83
2023-04-13T08:07:59.898Z,23.82
2023-04-13T08:10:28.067Z,23.83
2023-04-13T08:12:56.036Z,23.82
2023-04-13T08:15:24.333Z,23.82
2023-04-13T08:17:53.729Z,23.83
2023-04-13T08:20:22.278Z,23.82
2023-04-13T08:22:50.305Z,23.83
2023-04-13T08:25:18.494Z,23.83
2023-04-13T08:27:46.365Z,23.83
2023-04-13T08:30:14.793Z,23.83
2023-04-13T08:32:42.694Z,23.84
2023-04-13T08:35:12.553Z,23.84
2023-04-13T08:37:40.636Z,23.84
2023-04-13T08:40:11.935Z,23.84
2023-04-13T08:42:39.961Z,23.83
2023-04-13T08:45:10.545Z,23.84
2023-04-13T08:47:38.567Z,23.81
2023-04-13T08:50:07.746Z,23.83
2023-04-13T08:52:37.226Z,23.85
2023-04-13T08:55:05.981Z,23.78
2023-04-13T08:57:33.981Z,23.83
2023-04-13T09:00:05.165Z,23.81
2023-04-13T09:02:34.152Z,23.85
2023-04-13T09:05:05.585Z,23.83
2023-04-13T09:07:34.823Z,23.82
2023-04-13T09:10:05.963Z,23.83
2023-04-13T09:12:34.171Z,23.83
2023-04-13T09:15:03.148Z,23.83
2023-04-13T09:17:32.294Z,23.84
2023-04-13T09:20:13.291Z,23.84
2023-04-13T09:22:41.276Z,23.84
2023-04-13T09:25:20.888Z,23.83
2023-04-13T09:27:49.136Z,23.83
2023-04-13T09:30:20.600Z,23.83
2023-04-13T09:32:48.587Z,23.83
2023-04-13T09:35:17.062Z,23.82
2023-04-13T09:37:45.213Z,23.82
2023-04-13T09:40:16.171Z,23.82
2023-04-13T09:42:54.973Z,23.84
2023-04-13T09:45:22.939Z,23.83
2023-04-13T09:47:52.292Z,23.84
2023-04-13T09:50:28.203Z,23.83
2023-04-13T09:53:02.959Z,23.84
2023-04-13T09:55:32.788Z,23.83
2023-04-13T09:58:10.915Z,23.84
2023-04-13T10:00:40.114Z,23.84
2023-04-13T10:03:10.939Z,23.84
2023-04-13T10:05:51.026Z,23.84
2023-04-13T10:08:37.500Z,23.85
2023-04-13T10:11:13.252Z,23.84
2023-04-13T10:13:46.867Z,23.84
2023-04-13T10:16:39.759Z,23.84
2023-04-13T10:19:11.041Z,23.84
2023-04-13T10:21:40.327Z,23.85
2023-04-13T10:24:12.132Z,23.85
2023-04-13T10:26:43.889Z,23.84
2023-04-13T10:29:14.462Z,23.85
2023-04-13T10:31:46.866Z,23.85
2023-04-13T10:34:24.412Z,23.84
2023-04-13T10:36:55.120Z,23.84
2023-04-13T10:39:26.062Z,23.85
2023-04-13T10:42:01.787Z,23.84
2023-04-13T10:44:29.844Z,23.85
2023-04-13T10:46:59.247Z,23.84
2023-04-13T10:49:33.723Z,23.83
2023-04-13T10:52:01.667Z,23.84
2023-04-13T10:54:30.265Z,23.85
2023-04-13T10:56:58.690Z,23.83
2023-04-13T10:59:55.548Z,23.83
2023-04-13T11:02:26.065Z,23.83
2023-04-13T11:04:54.336Z,23.84
2023-04-13T11:07:23.341Z,23.83
2023-04-13T11:09:51.756Z,23.83
2023-04-13T11:12:19.778Z,23.80
2023-04-13T11:14:49.331Z,23.83
2023-04-13T11:17:18.942Z,23.83
2023-04-13T11:19:49.806Z,23.83
2023-04-13T11:22:19.092Z,23.82
2023-04-13T11:24:47.564Z,23.83
2023-04-13T11:27:19.117Z,23.83
2023-04-13T11:29:57.826Z,23.82
2023-04-13T11:32:26.387Z,23.83
2023-04-13T11:34:54.600Z,23.82
2023-04-13T11:37:22.568Z,23.83
2023-04-13T11:39:50.768Z,23.84
2023-04-13T11:42:18.671Z,23.84
2023-04-13T11:44:47.908Z,23.84
2023-04-13T11:47:16.250Z,23.85
2023-04-13T11:49:47.886Z,23.84
2023-04-13T11:52:15.816Z,23.84
2023-04-13T11:54:44.719Z,23.83
2023-04-13T11:57:13.259Z,23.84
2023-04-13T11:59:41.149Z,23.83
2023-04-13T12:02:20.721Z,23.83
2023-04-13T12:04:51.400Z,23.84
2023-04-13T12:07:19.773Z,23.84
2023-04-13T12:15:10.545Z,23.83
2023-04-13T12:17:49.459Z,23.84
2023-04-13T12:20:20.298Z,23.83
2023-04-13T12:22:57.794Z,23.83
2023-04-13T12:28:01.445Z,23.84
2023-04-13T12:30:29.668Z,23.83
2023-04-13T12:32:59.068Z,23.81
2023-04-13T12:35:27.097Z,23.83
2023-04-13T12:37:55.329Z,23.84
2023-04-13T12:40:23.643Z,23.84
2023-04-13T12:42:51.670Z,23.83
2023-04-13T12:45:19.582Z,23.84
2023-04-13T12:47:47.601Z,23.84
2023-04-13T12:50:17.284Z,23.84
2023-04-13T12:52:45.374Z,23.83
2023-04-13T12:55:13.417Z,23.84
2023-04-13T12:57:41.699Z,23.83
2023-04-13T13:00:15.825Z,23.85
2023-04-13T13:02:43.949Z,23.84
2023-04-13T13:05:11.973Z,23.85
2023-04-13T13:07:41.784Z,23.85
2023-04-13T13:10:25.938Z,23.85
2023-04-13T13:12:57.226Z,23.86
2023-04-13T13:15:25.462Z,23.85
2023-04-13T13:17:53.752Z,23.84
2023-04-13T13:20:21.787Z,23.86
2023-04-13T13:22:51.211Z,23.85
2023-04-13T13:25:19.358Z,23.87
2023-04-13T13:30:18.409Z,23.86
2023-04-13T13:32:46.329Z,23.87
2023-04-13T13:35:15.576Z,23.86
2023-04-13T13:37:43.545Z,23.87
2023-04-13T13:40:13.877Z,23.86
2023-04-13T13:42:51.197Z,23.87
2023-04-13T13:45:20.861Z,23.87
2023-04-13T13:47:52.106Z,23.89
2023-04-13T13:50:21.440Z,23.89
2023-04-13T13:53:02.404Z,23.88
2023-04-13T13:55:32.921Z,23.88
2023-04-13T13:58:00.797Z,23.88
2023-04-13T14:00:29.154Z,23.87
2023-04-13T14:02:57.245Z,23.88
2023-04-13T14:05:25.357Z,23.88
2023-04-13T14:07:53.551Z,23.87
2023-04-13T14:10:21.629Z,23.88
2023-04-13T14:12:51.940Z,23.88
2023-04-13T14:15:20.211Z,23.87
2023-04-13T14:17:58.812Z,23.89
2023-04-13T14:20:38.465Z,23.90
2023-04-13T14:23:06.502Z,23.90
2023-04-13T14:25:34.465Z,23.89
2023-04-13T14:28:03.854Z,23.93
2023-04-13T14:30:32.083Z,23.94
2023-04-13T14:32:59.955Z,23.94
2023-04-13T14:35:27.888Z,23.94
2023-04-13T14:37:55.862Z,23.96
2023-04-13T14:40:24.350Z,23.97
2023-04-13T14:42:52.806Z,23.98
2023-04-13T14:45:22.277Z,23.98
2023-04-13T14:47:50.540Z,23.98
2023-04-13T14:50:19.012Z,23.97
2023-04-13T14:52:46.987Z,23.98
2023-04-13T14:55:15.115Z,23.98
2023-04-13T14:57:43.084Z,23.99
2023-04-13T15:00:15.839Z,23.99
2023-04-13T15:02:45.388Z,24.00
2023-04-13T15:05:13.485Z,24.01
2023-04-13T15:07:42.425Z,24.02
2023-04-13T15:10:10.928Z,24.02
2023-04-13T15:12:38.923Z,24.04
2023-04-13T15:15:09.913Z,24.04
2023-04-13T15:17:37.911Z,24.04
2023-04-13T15:20:10.599Z,24.05
2023-04-13T15:22:38.720Z,24.06
2023-04-13T15:25:07.786Z,24.06
2023-04-13T15:27:35.837Z,24.07
2023-04-13T15:30:04.309Z,24.07
2023-04-13T15:32:34.583Z,24.08
2023-04-13T15:35:02.595Z,24.08
2023-04-13T15:37:32.115Z,24.07
2023-04-13T15:40:01.110Z,24.06
2023-04-13T15:42:29.324Z,24.05
2023-04-13T15:44:57.260Z,24.05
2023-04-13T15:47:25.243Z,24.04
2023-04-13T15:49:53.442Z,24.04
2023-04-13T15:52:22.197Z,24.03
2023-04-13T15:54:51.535Z,24.02
2023-04-13T15:57:19.564Z,24.02
2023-04-13T15:59:47.679Z,24.02
2023-04-13T16:02:15.707Z,24.00
2023-04-13T16:04:43.859Z,24.00
2023-04-13T16:07:14.587Z,24.00
2023-04-13T16:09:43.968Z,23.99
2023-04-13T16:12:13.582Z,23.99
2023-04-13T16:14:44.808Z,23.98
2023-04-13T16:17:13.200Z,23.97
2023-04-13T16:19:41.143Z,23.97
2023-04-13T16:22:10.964Z,23.97
2023-04-13T16:24:38.916Z,23.97
2023-04-13T16:27:07.328Z,23.97
2023-04-13T16:29:36.729Z,23.96
2023-04-13T16:32:04.916Z,23.95
2023-04-13T16:34:32.877Z,23.96
2023-04-13T16:37:00.817Z,23.96
2023-04-13T16:39:28.768Z,23.97
2023-04-13T16:41:56.957Z,23.97
2023-04-13T16:44:24.938Z,23.97
2023-04-13T16:46:54.359Z,23.97
2023-04-13T16:49:22.316Z,23.97
2023-04-13T16:51:50.582Z,23.97
2023-04-13T16:54:19.308Z,23.96
2023-04-13T16:56:47.269Z,23.96
2023-04-13T16:59:15.339Z,23.95
2023-04-13T17:01:43.541Z,23.95
2023-04-13T17:04:12.996Z,23.96
2023-04-13T17:06:41.086Z,23.95
2023-04-13T17:09:09.912Z,23.95
2023-04-13T17:11:38.130Z,23.95
2023-04-13T17:14:06.055Z,23.93
2023-04-13T17:16:34.022Z,23.94
2023-04-13T17:19:02.467Z,23.93
2023-04-13T17:21:32.290Z,23.94
2023-04-13T17:24:00.383Z,23.93
2023-04-13T17:26:28.298Z,23.93
2023-04-13T17:28:56.397Z,23.92
2023-04-13T17:31:24.707Z,23.91
2023-04-13T17:33:52.789Z,23.92
2023-04-13T17:36:22.057Z,23.93
2023-04-13T17:38:51.758Z,23.92
2023-04-13T17:41:19.960Z,23.87
2023-04-13T17:43:47.892Z,23.90
2023-04-13T17:46:17.209Z,23.91
2023-04-13T17:48:45.174Z,23.87
2023-04-13T17:51:13.452Z,23.90
2023-04-13T17:53:41.470Z,23.87
2023-04-13T17:56:14.921Z,23.90
2023-04-13T17:58:42.924Z,23.89
2023-04-13T18:01:11.332Z,23.89
2023-04-13T18:03:39.606Z,23.89
2023-04-13T18:06:07.864Z,23.89
2023-04-13T18:08:35.802Z,23.88
2023-04-13T18:11:04.074Z,23.89
2023-04-13T18:13:34.340Z,23.88
2023-04-13T18:16:02.428Z,23.88
2023-04-13T18:18:30.758Z,23.88
2023-04-13T18:20:58.971Z,23.89
2023-04-13T18:23:26.994Z,23.88
2023-04-13T18:25:54.990Z,23.89
2023-04-13T18:28:22.950Z,23.85
2023-04-13T18:30:52.523Z,23.88
2023-04-13T18:33:20.472Z,23.87
2023-04-13T18:35:50.370Z,23.87
2023-04-13T18:38:18.458Z,23.87
2023-04-13T18:40:46.910Z,23.87
2023-04-13T18:43:14.815Z,23.87
2023-04-13T18:45:42.762Z,23.87
2023-04-13T18:48:12.134Z,23.87
2023-04-13T18:50:40.208Z,23.86
2023-04-13T18:53:08.098Z,23.86
2023-04-13T18:55:36.071Z,23.87
2023-04-13T18:58:03.960Z,23.86
2023-04-13T19:00:32.535Z,23.86
2023-04-13T19:03:01.131Z,23.85
2023-04-13T19:05:32.050Z,23.86
2023-04-13T19:08:01.039Z,23.85
2023-04-13T19:10:29.217Z,23.86
2023-04-13T19:12:57.196Z,23.86
2023-04-13T19:15:25.227Z,23.82
2023-04-13T19:17:53.349Z,23.86
2023-04-13T19:20:22.525Z,23.86
2023-04-13T19:22:51.857Z,23.86
2023-04-13T19:25:19.766Z,23.86
2023-04-13T19:27:47.956Z,23.85
2023-04-13T19:30:16.997Z,23.85
2023-04-13T19:32:45.697Z,23.85
2023-04-13T19:35:13.826Z,23.86
2023-04-13T19:37:42.031Z,23.85
2023-04-13T19:40:13.653Z,23.85
2023-04-13T19:42:42.463Z,23.84
2023-04-13T19:45:10.784Z,23.85
2023-04-13T19:47:38.876Z,23.86
2023-04-13T19:50:08.344Z,23.85
2023-04-13T19:52:36.217Z,23.85
2023-04-13T19:55:04.213Z,23.85
2023-04-13T19:57:34.097Z,23.84
2023-04-13T20:00:02.063Z,23.82
2023-04-13T20:02:30.100Z,23.85
2023-04-13T20:04:58.148Z,23.85
2023-04-13T20:07:26.044Z,23.86
2023-04-13T20:09:54.270Z,23.86
2023-04-13T20:12:22.226Z,23.85
2023-04-13T20:14:51.496Z,23.85
2023-04-13T20:17:19.465Z,23.85
2023-04-13T20:19:47.689Z,23.85
2023-04-13T20:22:18.302Z,23.85
2023-04-13T20:24:46.299Z,23.85
2023-04-13T20:27:14.268Z,23.85
2023-04-13T20:29:42.175Z,23.86
2023-04-13T20:32:11.765Z,23.86
2023-04-13T20:34:39.666Z,23.86
2023-04-13T20:37:09.855Z,23.85
2023-04-13T20:39:38.846Z,23.84
2023-04-13T20:42:08.279Z,23.85
2023-04-13T20:44:38.034Z,23.85
2023-04-13T20:47:06.165Z,23.85
2023-04-13T20:49:37.807Z,23.85
2023-04-13T20:52:06.666Z,23.85
2023-04-13T20:54:34.633Z,23.85
2023-04-13T20:57:02.562Z,23.84
2023-04-13T20:59:31.052Z,23.83
2023-04-13T21:01:59.396Z,23.85
2023-04-13T21:04:27.439Z,23.85
2023-04-13T21:06:56.760Z,23.85
2023-04-13T21:09:24.647Z,23.86
2023-04-13T21:11:52.839Z,23.84
2023-04-13T21:14:24.612Z,23.85
2023-04-13T21:16:52.676Z,23.85
2023-04-13T21:19:20.761Z,23.85
2023-04-13T21:21:48.808Z,23.85
2023-04-13T21:24:18.132Z,23.84
2023-04-13T21:26:46.166Z,23.84
2023-04-13T21:29:16.341Z,23.84
2023-04-13T21:31:44.604Z,23.84
2023-04-13T21:34:12.708Z,23.85
2023-04-13T21:39:11.621Z,23.84
2023-04-13T21:41:41.510Z,23.83
2023-04-13T21:44:22.292Z,23.84
2023-04-13T21:46:54.409Z,23.85
2023-04-13T21:49:22.342Z,23.84
2023-04-13T21:51:50.547Z,23.84
2023-04-13T21:54:18.476Z,23.84
2023-04-13T21:56:49.008Z,23.83
2023-04-13T21:59:17.042Z,23.83
2023-04-13T22:01:45.868Z,23.81
2023-04-13T22:04:14.129Z,23.83
2023-04-13T22:06:42.194Z,23.81
2023-04-13T22:09:10.110Z,23.81
2023-04-13T22:11:38.316Z,23.80
2023-04-13T22:14:07.632Z,23.79
2023-04-13T22:16:35.632Z,23.79
2023-04-13T22:19:03.579Z,23.80
2023-04-13T22:21:31.742Z,23.78
2023-04-13T22:23:59.686Z,23.78
2023-04-13T22:26:27.621Z,23.78
2023-04-13T22:28:55.711Z,23.77
2023-04-13T22:31:25.467Z,23.77
2023-04-13T22:33:53.360Z,23.76
2023-04-13T22:36:21.748Z,23.76
2023-04-13T22:38:49.761Z,23.76
2023-04-13T22:41:17.975Z,23.75
2023-04-13T22:43:45.840Z,23.76
2023-04-13T22:46:13.801Z,23.75
2023-04-13T22:48:43.174Z,23.75
2023-04-13T22:51:11.589Z,23.74
2023-04-13T22:53:39.547Z,23.74
2023-04-13T22:56:07.862Z,23.74
2023-04-13T22:58:35.747Z,23.73
2023-04-13T23:01:04.657Z,23.70
2023-04-13T23:03:32.711Z,23.72
2023-04-13T23:06:02.094Z,23.71
2023-04-13T23:08:30.419Z,23.70
2023-04-13T23:10:58.614Z,23.71
2023-04-13T23:13:26.523Z,23.70
2023-04-13T23:16:00.584Z,23.68
2023-04-13T23:18:28.613Z,23.70
2023-04-13T23:20:56.806Z,23.71
2023-04-13T23:23:26.280Z,23.70
2023-04-13T23:25:54.160Z,23.70
2023-04-13T23:28:22.075Z,23.71
2023-04-13T23:30:50.565Z,23.71
2023-04-13T23:33:18.481Z,23.71
2023-04-13T23:35:52.688Z,23.72
2023-04-13T23:38:20.637Z,23.70
2023-04-13T23:40:50.208Z,23.69
2023-04-13T23:43:18.142Z,23.70
2023-04-13T23:45:46.325Z,23.65
2023-04-13T23:48:14.239Z,23.70
2023-04-13T23:50:42.509Z,23.69
2023-04-13T23:53:10.434Z,23.70
2023-04-13T23:55:38.666Z,23.69
2023-04-13T23:58:08.002Z,23.68
